Airfield :
LOGIN :

Register | Disclaimer

   EN    FR    IT 

 










Legend :    VFR   Marginal VFR   IFR   Intensive IFR   Very Intensive IFR
Visi :
Ceiling :
>= 8 km
>= 3000ft
5 to 8 km
1000 to 3000 ft
1500m to 5 km
500 to 1000 ft
800 to 1500m
200 to 500 ft
< 800m
< 200 ft
Symbols :   Thunderstorms  Fog  Heavy snow  Heavy precipitations  Wind > 20 kt
SIGMETs :     Misc.  Thunderstorms  Icing  Turbulence  Mountain Waves  Volcanic Ashes






- Airport Elevation : 25 ft
- IATA code : QCY


EGXC - RAF Coningsby

CURRENT METAR :
  • 251550Z 30008KT CAVOK 08/07 Q1013 NOSIG RMK BLU BLU

EXPIRED METARs :
  • 251450Z 31006KT 9999 FEW008 BKN040 08/07 Q1012 NOSIG RMK BLU BLU
  • 251414Z 33009KT 9999 -RA FEW005 SCT007 BKN030 08/07 Q1012 BECMG FEW008 BKN035 RMK GRN BECMG BLU
  • 251350Z 32009KT 7000 -DZ FEW004 BKN005 OVC022 08/07 Q1012 BECMG 9999 FEW008 BKN030 RMK YLO1 BECMG BLU

TAF TAF EGXC
Valid from the 25 at 15:00 until the 26 at 09:00 UTC


251326Z 2515/2609 31007KT 9999 FEW012 BKN035
PROB40
TEMPO 2515/2516 SCT010
PROB30
TEMPO 2518/2520 7000 HZ
BECMG 2520/2523 7000 BR
TEMPO 2523/2609 2000 BR MIFG
PROB30 2602/2609 0300 FG VV///



MET'MAP, your aeronautical weather chart ! - Copyright ORBIFLY December 2007 - Disclaimer

ORBIFLY MET'MAP TEAM :

Programming & Development : Alexandra Zaïnal
Concept & original design : Baudouin d'Aumeries
Assistance for programming : Marc-Olivier Méhu
Technical & hardware support : Manuel Goepfert

Contact : metmap@orbifly.com




SOURCES & CREDITS :

   NOAA